createdAt,value
2019-01-11T00:02:42.794Z,4.24
2019-01-11T00:07:46.832Z,4.21
2019-01-11T00:12:50.868Z,4.13
2019-01-11T00:17:54.931Z,4.25
2019-01-11T00:22:59.579Z,4.25
2019-01-11T00:28:03.880Z,4.05
2019-01-11T00:33:07.909Z,3.67
2019-01-11T00:38:11.861Z,3.21
2019-01-11T00:43:15.926Z,3.05
2019-01-11T00:48:20.257Z,3.05
2019-01-11T00:53:24.387Z,3.18
2019-01-11T00:58:28.197Z,3.26
2019-01-11T01:03:32.369Z,3.43
2019-01-11T01:08:36.618Z,3.43
2019-01-11T01:13:40.567Z,3.28
2019-01-11T01:18:44.581Z,3.23
2019-01-11T01:23:51.046Z,3.16
2019-01-11T01:28:55.109Z,3.15
2019-01-11T01:33:59.036Z,2.97
2019-01-11T01:39:05.996Z,3.03
2019-01-11T01:44:10.021Z,3.00
2019-01-11T01:49:14.132Z,3.11
2019-01-11T01:54:18.839Z,3.02
2019-01-11T01:59:22.822Z,2.99
2019-01-11T02:04:26.777Z,2.69
2019-01-11T02:09:30.721Z,2.65
2019-01-11T02:14:34.643Z,2.65
2019-01-11T02:19:38.725Z,2.69
2019-01-11T02:24:45.012Z,2.89
2019-01-11T02:29:48.936Z,2.86
2019-01-11T02:34:52.924Z,2.72
2019-01-11T02:39:56.848Z,2.75
2019-01-11T02:45:00.774Z,2.74
2019-01-11T02:50:05.686Z,2.55
2019-01-11T02:55:09.711Z,2.51
2019-01-11T03:00:18.852Z,2.37
2019-01-11T03:05:25.416Z,2.27
2019-01-11T03:10:29.516Z,2.24
2019-01-11T03:15:33.514Z,2.15
2019-01-11T03:20:37.711Z,2.26
2019-01-11T03:25:44.075Z,2.27
2019-01-11T03:30:48.083Z,2.57
2019-01-11T03:35:51.964Z,2.60
2019-01-11T03:40:55.981Z,2.62
2019-01-11T03:45:59.884Z,2.77
2019-01-11T03:51:04.119Z,2.93
2019-01-11T03:56:08.145Z,2.98
2019-01-11T04:01:12.128Z,3.03
2019-01-11T04:06:18.405Z,3.00
2019-01-11T04:11:22.904Z,2.98
2019-01-11T04:16:28.958Z,2.95
2019-01-11T04:21:33.244Z,2.82
2019-01-11T04:26:39.385Z,2.61
2019-01-11T04:31:43.424Z,2.73
2019-01-11T04:36:47.250Z,2.78
2019-01-11T04:41:51.213Z,2.80
2019-01-11T04:46:55.175Z,2.71
2019-01-11T04:51:59.363Z,2.70
2019-01-11T04:57:03.872Z,2.65
2019-01-11T05:02:08.109Z,2.50
2019-01-11T05:07:12.261Z,2.56
2019-01-11T05:12:16.628Z,2.42
2019-01-11T05:17:20.538Z,2.42
2019-01-11T05:22:26.180Z,2.42
2019-01-11T05:27:34.348Z,2.41
2019-01-11T05:32:38.524Z,2.31
2019-01-11T05:37:42.442Z,2.23
2019-01-11T05:42:46.569Z,2.20
2019-01-11T05:47:50.478Z,2.12
2019-01-11T05:52:54.618Z,2.04
2019-01-11T05:58:27.733Z,2.02
2019-01-11T06:03:31.697Z,1.95
2019-01-11T06:08:36.522Z,1.83
2019-01-11T06:13:40.474Z,1.82
2019-01-11T06:18:44.517Z,1.81
2019-01-11T06:23:48.533Z,1.91
2019-01-11T06:28:53.085Z,1.93
2019-01-11T06:33:57.157Z,1.96
2019-01-11T06:39:01.045Z,1.91
2019-01-11T06:44:05.021Z,1.89
2019-01-11T06:49:12.096Z,1.96
2019-01-11T06:54:16.065Z,2.04
2019-01-11T06:59:20.093Z,2.02
2019-01-11T07:04:24.181Z,2.15
2019-01-11T07:09:31.376Z,2.18
2019-01-11T07:14:36.169Z,2.24
2019-01-11T07:19:40.044Z,2.32
2019-01-11T07:24:45.040Z,2.40
2019-01-11T07:29:49.372Z,2.52
2019-01-11T07:34:53.631Z,2.58
2019-01-11T07:39:58.446Z,2.64
2019-01-11T07:45:03.382Z,2.70
2019-01-11T07:50:08.082Z,2.77
2019-01-11T07:55:12.301Z,2.87
2019-01-11T08:00:17.526Z,2.99
2019-01-11T08:05:21.627Z,2.94
2019-01-11T08:10:25.986Z,2.96
2019-01-11T08:15:31.971Z,2.97
2019-01-11T08:20:36.224Z,2.92
2019-01-11T08:25:41.112Z,1.93
2019-01-11T08:30:46.296Z,1.43
2019-01-11T08:35:50.711Z,1.18
2019-01-11T08:40:54.652Z,1.49
2019-01-11T08:45:59.160Z,1.59
2019-01-11T08:51:03.934Z,1.51
2019-01-11T08:56:08.829Z,1.37
2019-01-11T09:01:13.139Z,1.49
2019-01-11T09:06:18.757Z,1.56
2019-01-11T09:11:22.720Z,1.57
2019-01-11T09:16:26.873Z,1.48
2019-01-11T09:21:30.871Z,1.35
2019-01-11T09:26:34.980Z,1.44
2019-01-11T09:31:41.527Z,1.30
2019-01-11T09:36:45.758Z,1.23
2019-01-11T09:41:49.848Z,1.38
2019-01-11T09:46:54.108Z,1.67
2019-01-11T09:51:58.194Z,1.85
2019-01-11T09:57:02.571Z,1.96
2019-01-11T10:02:25.214Z,1.92
2019-01-11T10:07:30.375Z,2.03
2019-01-11T10:12:34.604Z,2.33
2019-01-11T10:17:38.792Z,2.63
2019-01-11T10:22:43.244Z,2.84
2019-01-11T10:27:47.228Z,2.95
2019-01-11T10:32:51.976Z,3.06
2019-01-11T10:37:56.068Z,2.77
2019-01-11T10:43:00.229Z,3.05
2019-01-11T10:48:05.054Z,3.37
2019-01-11T10:53:09.723Z,3.34
2019-01-11T10:58:14.146Z,3.34
2019-01-11T11:03:18.101Z,3.12
2019-01-11T11:08:22.102Z,3.10
2019-01-11T11:13:26.138Z,3.56
2019-01-11T11:18:30.676Z,3.65
2019-01-11T11:23:35.464Z,3.39
2019-01-11T11:28:39.825Z,3.45
2019-01-11T11:33:45.854Z,3.33
2019-01-11T11:38:50.285Z,3.55
2019-01-11T11:43:54.782Z,3.65
2019-01-11T11:48:59.144Z,3.76
2019-01-11T11:54:03.327Z,4.00
2019-01-11T11:59:07.623Z,4.00
2019-01-11T12:04:12.115Z,4.02
2019-01-11T12:09:16.045Z,3.95
2019-01-11T12:14:20.304Z,4.04
2019-01-11T12:19:24.270Z,4.03
2019-01-11T12:24:28.305Z,3.96
2019-01-11T12:29:32.524Z,3.65
2019-01-11T12:34:38.483Z,3.65
2019-01-11T12:39:42.827Z,3.14
2019-01-11T12:44:47.032Z,3.03
2019-01-11T12:49:51.090Z,2.86
2019-01-11T12:54:56.326Z,3.37
2019-01-11T13:00:00.653Z,3.86
2019-01-11T13:05:06.472Z,4.07
2019-01-11T13:10:12.449Z,4.17
2019-01-11T13:15:18.830Z,3.82
2019-01-11T13:20:23.521Z,3.72
2019-01-11T13:25:32.066Z,3.66
2019-01-11T13:30:33.719Z,3.81
2019-01-11T13:35:38.761Z,3.71
2019-01-11T13:40:43.544Z,3.56
2019-01-11T13:45:47.924Z,3.64
2019-01-11T13:50:52.228Z,3.45
2019-01-11T13:55:56.296Z,3.39
2019-01-11T14:01:00.580Z,3.03
2019-01-11T14:06:04.700Z,3.12
2019-01-11T14:11:09.443Z,3.03
2019-01-11T14:16:13.826Z,2.99
2019-01-11T14:21:17.802Z,2.89
2019-01-11T14:26:21.821Z,2.66
2019-01-11T14:31:25.993Z,2.58
2019-01-11T14:36:30.657Z,2.43
2019-01-11T14:41:35.766Z,2.32
2019-01-11T14:46:39.778Z,2.00
2019-01-11T14:51:43.953Z,1.73
2019-01-11T14:56:47.878Z,1.52
2019-01-11T15:01:52.480Z,1.41
2019-01-11T15:06:57.120Z,1.13
2019-01-11T15:12:01.416Z,1.06
2019-01-11T15:17:05.365Z,0.83
2019-01-11T15:22:09.578Z,0.66
2019-01-11T15:27:13.565Z,0.62
2019-01-11T15:32:17.718Z,0.53
2019-01-11T15:37:22.908Z,0.30
2019-01-11T15:42:26.863Z,0.25
2019-01-11T15:47:30.829Z,0.13
2019-01-11T15:52:35.076Z,0.16
2019-01-11T15:57:42.757Z,0.13
2019-01-11T16:02:47.090Z,0.05
2019-01-11T16:07:51.071Z,-0.05
2019-01-11T16:13:10.904Z,-0.03
2019-01-11T16:18:22.372Z,-0.21
2019-01-11T16:23:26.292Z,-0.27
2019-01-11T16:28:30.675Z,-0.24
2019-01-11T16:33:34.670Z,-0.26
2019-01-11T16:38:39.648Z,-0.52
2019-01-11T16:43:43.905Z,-0.50
2019-01-11T16:48:47.991Z,-0.64
2019-01-11T16:53:52.321Z,-0.62
2019-01-11T16:58:56.413Z,-0.50
2019-01-11T17:04:00.636Z,-0.62
2019-01-11T17:09:07.415Z,-0.63
2019-01-11T17:14:11.617Z,-0.67
2019-01-11T17:19:15.572Z,-0.60
2019-01-11T17:24:19.879Z,-0.67
2019-01-11T17:29:23.913Z,-0.80
2019-01-11T17:34:28.204Z,-0.76
2019-01-11T17:39:33.375Z,-0.74
2019-01-11T17:44:37.594Z,-0.81
2019-01-11T17:49:41.711Z,-0.78
2019-01-11T17:54:45.718Z,-0.79
2019-01-11T17:59:49.705Z,-0.60
2019-01-11T18:04:55.321Z,-0.39
2019-01-11T18:10:01.264Z,-0.17
2019-01-11T18:15:19.150Z,-0.06
2019-01-11T18:20:26.794Z,0.25
2019-01-11T18:25:32.057Z,0.54
2019-01-11T18:30:36.359Z,0.59
2019-01-11T18:35:40.446Z,0.54
2019-01-11T18:40:44.821Z,0.61
2019-01-11T18:45:49.086Z,0.66
2019-01-11T18:50:53.266Z,0.56
2019-01-11T18:56:07.827Z,0.55
2019-01-11T19:01:19.472Z,0.50
2019-01-11T19:06:26.062Z,0.56
2019-01-11T19:11:30.526Z,0.52
2019-01-11T19:16:35.081Z,0.55
2019-01-11T19:21:39.418Z,0.62
2019-01-11T19:26:43.626Z,0.64
2019-01-11T19:31:48.152Z,0.68
2019-01-11T19:36:52.499Z,0.71
2019-01-11T19:41:57.178Z,0.65
2019-01-11T19:47:01.546Z,0.54
2019-01-11T19:52:05.824Z,0.48
2019-01-11T19:57:09.990Z,0.49
2019-01-11T20:02:15.242Z,0.50
2019-01-11T20:07:19.567Z,0.47
2019-01-11T20:12:23.976Z,0.39
2019-01-11T20:17:29.366Z,0.40
2019-01-11T20:22:33.994Z,0.40
2019-01-11T20:27:38.001Z,0.41
2019-01-11T20:32:42.375Z,0.52
2019-01-11T20:37:46.763Z,0.55
2019-01-11T20:42:51.854Z,0.41
2019-01-11T20:47:55.929Z,0.26
2019-01-11T20:53:00.127Z,0.20
2019-01-11T20:58:04.331Z,0.22
2019-01-11T21:03:08.439Z,0.19
2019-01-11T21:08:14.739Z,0.33
2019-01-11T21:13:18.829Z,0.23
2019-01-11T21:18:23.070Z,0.15
2019-01-11T21:23:27.323Z,0.11
2019-01-11T21:28:31.493Z,0.05
2019-01-11T21:33:35.531Z,0.08
2019-01-11T21:38:39.639Z,0.08
2019-01-11T21:43:43.924Z,-0.06
2019-01-11T21:48:47.995Z,0.05
2019-01-11T21:53:55.718Z,-0.08
2019-01-11T21:58:58.013Z,-0.02
2019-01-11T22:04:02.015Z,0.13
2019-01-11T22:09:07.788Z,0.08
2019-01-11T22:14:11.980Z,0.07
2019-01-11T22:19:34.130Z,0.11
2019-01-11T22:24:38.369Z,0.21
2019-01-11T22:29:42.362Z,0.20
2019-01-11T22:34:46.349Z,0.16
2019-01-11T22:39:50.385Z,0.10
2019-01-11T22:44:54.706Z,0.10
2019-01-11T22:49:58.919Z,0.08
2019-01-11T22:55:03.621Z,0.14
2019-01-11T23:00:46.380Z,0.12
2019-01-11T23:05:53.315Z,0.07
2019-01-11T23:11:33.455Z,0.04
2019-01-11T23:17:12.258Z,0.06
2019-01-11T23:22:16.436Z,0.06
2019-01-11T23:27:20.477Z,0.09
2019-01-11T23:32:24.565Z,0.02
2019-01-11T23:37:28.585Z,0.13
2019-01-11T23:42:32.688Z,0.07
2019-01-11T23:47:37.298Z,0.02
2019-01-11T23:52:41.494Z,0.02
2019-01-11T23:57:45.410Z,0.07
